sensor_id;sensor_type;location;lat;lon;timestamp;pressure;altitude;pressure_sealevel;temperature;humidity
73422;BME280;61637;47.760;-122.022;2023-08-12T00:00:00;101930.339;;;24.3;50.0
73422;BME280;61637;47.760;-122.022;2023-08-12T00:02:00;101930.339;;;24.3;51.0
73422;BME280;61637;47.760;-122.022;2023-08-12T00:04:00;101930.339;;;24.3;52.0
73422;BME280;61637;47.760;-122.022;2023-08-12T00:06:00;101930.339;;;24.4;50.0
73422;BME280;61637;47.760;-122.022;2023-08-12T00:08:01;101930.339;;;24.3;50.0
73422;BME280;61637;47.760;-122.022;2023-08-12T00:10:01;101930.339;;;24.4;51.0
73422;BME280;61637;47.760;-122.022;2023-08-12T00:12:00;101930.339;;;24.4;51.0
73422;BME280;61637;47.760;-122.022;2023-08-12T00:14:00;101930.339;;;24.4;49.0
73422;BME280;61637;47.760;-122.022;2023-08-12T00:16:00;101930.339;;;24.4;48.0
73422;BME280;61637;47.760;-122.022;2023-08-12T00:18:00;101930.339;;;24.3;49.0
73422;BME280;61637;47.760;-122.022;2023-08-12T00:20:01;101930.339;;;24.3;50.0
73422;BME280;61637;47.760;-122.022;2023-08-12T00:22:00;101930.339;;;24.3;49.0
73422;BME280;61637;47.760;-122.022;2023-08-12T00:24:00;101930.339;;;24.4;49.0
73422;BME280;61637;47.760;-122.022;2023-08-12T00:26:00;101930.339;;;24.5;50.0
73422;BME280;61637;47.760;-122.022;2023-08-12T00:28:00;101930.339;;;24.5;48.0
73422;BME280;61637;47.760;-122.022;2023-08-12T00:30:00;101930.339;;;24.6;51.0
73422;BME280;61637;47.760;-122.022;2023-08-12T00:32:01;101930.339;;;24.5;49.0
73422;BME280;61637;47.760;-122.022;2023-08-12T00:34:00;101930.339;;;24.6;49.0
73422;BME280;61637;47.760;-122.022;2023-08-12T00:36:00;101930.339;;;24.7;50.0
73422;BME280;61637;47.760;-122.022;2023-08-12T00:38:00;101930.339;;;24.7;49.0
73422;BME280;61637;47.760;-122.022;2023-08-12T00:40:00;101930.339;;;24.7;47.0
73422;BME280;61637;47.760;-122.022;2023-08-12T00:42:00;101930.339;;;24.7;49.0
73422;BME280;61637;47.760;-122.022;2023-08-12T00:44:01;101930.339;;;24.7;48.0
73422;BME280;61637;47.760;-122.022;2023-08-12T00:46:00;101930.339;;;24.7;49.0
73422;BME280;61637;47.760;-122.022;2023-08-12T00:48:00;101930.339;;;24.7;48.0
73422;BME280;61637;47.760;-122.022;2023-08-12T00:50:00;101930.339;;;24.7;50.0
73422;BME280;61637;47.760;-122.022;2023-08-12T00:52:00;101930.339;;;24.7;49.0
73422;BME280;61637;47.760;-122.022;2023-08-12T00:54:00;101930.339;;;24.7;48.0
73422;BME280;61637;47.760;-122.022;2023-08-12T00:56:01;101930.339;;;24.6;47.0
73422;BME280;61637;47.760;-122.022;2023-08-12T00:58:00;101930.339;;;24.5;48.0
73422;BME280;61637;47.760;-122.022;2023-08-12T01:00:01;101930.339;;;24.4;50.0
73422;BME280;61637;47.760;-122.022;2023-08-12T01:02:00;101930.339;;;24.4;50.0
73422;BME280;61637;47.760;-122.022;2023-08-12T01:04:00;101930.339;;;24.4;50.0
73422;BME280;61637;47.760;-122.022;2023-08-12T01:06:00;101930.339;;;24.4;49.0
73422;BME280;61637;47.760;-122.022;2023-08-12T01:08:01;101930.339;;;24.4;50.0
73422;BME280;61637;47.760;-122.022;2023-08-12T01:10:00;101930.339;;;24.4;50.0
73422;BME280;61637;47.760;-122.022;2023-08-12T01:12:03;101930.339;;;24.4;51.0
73422;BME280;61637;47.760;-122.022;2023-08-12T01:14:02;101930.339;;;24.4;51.0
73422;BME280;61637;47.760;-122.022;2023-08-12T01:16:01;101930.339;;;24.4;48.0
73422;BME280;61637;47.760;-122.022;2023-08-12T01:18:00;101930.339;;;24.3;51.0
73422;BME280;61637;47.760;-122.022;2023-08-12T01:20:01;101930.339;;;24.2;50.0
73422;BME280;61637;47.760;-122.022;2023-08-12T01:22:01;101930.339;;;24.2;52.0
73422;BME280;61637;47.760;-122.022;2023-08-12T01:24:00;101930.339;;;24.1;51.0
73422;BME280;61637;47.760;-122.022;2023-08-12T01:26:00;101930.339;;;23.9;51.0
73422;BME280;61637;47.760;-122.022;2023-08-12T01:28:00;101930.339;;;23.9;52.0
73422;BME280;61637;47.760;-122.022;2023-08-12T01:30:00;101930.339;;;23.8;53.0
73422;BME280;61637;47.760;-122.022;2023-08-12T01:32:02;101930.339;;;23.8;53.0
73422;BME280;61637;47.760;-122.022;2023-08-12T01:34:02;101930.339;;;23.7;53.0
73422;BME280;61637;47.760;-122.022;2023-08-12T01:36:03;101930.339;;;23.7;53.0
73422;BME280;61637;47.760;-122.022;2023-08-12T01:38:01;101930.339;;;23.6;54.0
73422;BME280;61637;47.760;-122.022;2023-08-12T01:40:01;101930.339;;;23.6;55.0
73422;BME280;61637;47.760;-122.022;2023-08-12T01:42:00;101930.339;;;23.4;55.0
73422;BME280;61637;47.760;-122.022;2023-08-12T01:44:01;101930.339;;;23.4;55.0
73422;BME280;61637;47.760;-122.022;2023-08-12T01:46:01;101930.339;;;23.3;54.0
73422;BME280;61637;47.760;-122.022;2023-08-12T01:48:00;101930.339;;;23.3;55.0
73422;BME280;61637;47.760;-122.022;2023-08-12T01:50:00;101930.339;;;23.3;56.0
73422;BME280;61637;47.760;-122.022;2023-08-12T01:52:00;101930.339;;;23.3;55.0
73422;BME280;61637;47.760;-122.022;2023-08-12T01:54:00;101930.339;;;23.2;54.0
73422;BME280;61637;47.760;-122.022;2023-08-12T01:56:01;101930.339;;;23.2;54.0
73422;BME280;61637;47.760;-122.022;2023-08-12T01:58:01;101930.339;;;23.2;55.0
73422;BME280;61637;47.760;-122.022;2023-08-12T02:00:00;101930.339;;;23.1;55.0
73422;BME280;61637;47.760;-122.022;2023-08-12T02:02:01;101930.339;;;23.1;55.0
73422;BME280;61637;47.760;-122.022;2023-08-12T02:04:00;101930.339;;;22.9;55.0
73422;BME280;61637;47.760;-122.022;2023-08-12T02:06:00;101930.339;;;22.9;56.0
73422;BME280;61637;47.760;-122.022;2023-08-12T02:08:01;101930.339;;;22.8;56.0
73422;BME280;61637;47.760;-122.022;2023-08-12T02:10:00;101930.339;;;22.7;56.0
73422;BME280;61637;47.760;-122.022;2023-08-12T02:12:00;101930.339;;;22.6;55.0
73422;BME280;61637;47.760;-122.022;2023-08-12T02:14:00;101930.339;;;22.5;56.0
73422;BME280;61637;47.760;-122.022;2023-08-12T02:16:00;101930.339;;;22.4;57.0
73422;BME280;61637;47.760;-122.022;2023-08-12T02:18:00;101930.339;;;22.3;58.0
73422;BME280;61637;47.760;-122.022;2023-08-12T02:20:01;101930.339;;;22.3;57.0
73422;BME280;61637;47.760;-122.022;2023-08-12T02:22:01;101930.339;;;22.3;59.0
73422;BME280;61637;47.760;-122.022;2023-08-12T02:24:00;101930.339;;;22.2;57.0
73422;BME280;61637;47.760;-122.022;2023-08-12T02:26:01;101930.339;;;22.2;58.0
73422;BME280;61637;47.760;-122.022;2023-08-12T02:28:00;101930.339;;;22.1;58.0
73422;BME280;61637;47.760;-122.022;2023-08-12T02:30:00;101930.339;;;22.0;57.0
73422;BME280;61637;47.760;-122.022;2023-08-12T02:32:01;101930.339;;;21.9;58.0
73422;BME280;61637;47.760;-122.022;2023-08-12T02:34:00;101930.339;;;21.9;59.0
73422;BME280;61637;47.760;-122.022;2023-08-12T02:36:00;101930.339;;;21.8;60.0
73422;BME280;61637;47.760;-122.022;2023-08-12T02:38:00;101930.339;;;21.7;60.0
73422;BME280;61637;47.760;-122.022;2023-08-12T02:40:00;101930.339;;;21.7;59.0
73422;BME280;61637;47.760;-122.022;2023-08-12T02:42:00;101930.339;;;21.6;60.0
73422;BME280;61637;47.760;-122.022;2023-08-12T02:44:01;101930.339;;;21.5;61.0
73422;BME280;61637;47.760;-122.022;2023-08-12T02:46:00;101930.339;;;21.4;61.0
73422;BME280;61637;47.760;-122.022;2023-08-12T02:48:00;101930.339;;;21.3;61.0
73422;BME280;61637;47.760;-122.022;2023-08-12T02:50:00;101930.339;;;21.2;61.0
73422;BME280;61637;47.760;-122.022;2023-08-12T02:52:00;101930.339;;;21.2;61.0
73422;BME280;61637;47.760;-122.022;2023-08-12T02:54:00;101930.339;;;21.1;61.0
73422;BME280;61637;47.760;-122.022;2023-08-12T02:56:01;101930.339;;;20.9;61.0
73422;BME280;61637;47.760;-122.022;2023-08-12T02:58:00;101930.339;;;20.9;63.0
73422;BME280;61637;47.760;-122.022;2023-08-12T03:00:00;101930.339;;;20.8;63.0
73422;BME280;61637;47.760;-122.022;2023-08-12T03:02:00;101930.339;;;20.7;64.0
73422;BME280;61637;47.760;-122.022;2023-08-12T03:04:00;101930.339;;;20.7;62.0
73422;BME280;61637;47.760;-122.022;2023-08-12T03:06:00;101930.339;;;20.6;63.0
73422;BME280;61637;47.760;-122.022;2023-08-12T03:08:01;101930.339;;;20.5;63.0
73422;BME280;61637;47.760;-122.022;2023-08-12T03:10:00;101930.339;;;20.4;63.0
73422;BME280;61637;47.760;-122.022;2023-08-12T03:12:00;101930.339;;;20.4;63.0
73422;BME280;61637;47.760;-122.022;2023-08-12T03:14:00;101930.339;;;20.3;63.0
73422;BME280;61637;47.760;-122.022;2023-08-12T03:16:00;101930.339;;;20.3;63.0
73422;BME280;61637;47.760;-122.022;2023-08-12T03:18:00;101930.339;;;20.2;63.0
73422;BME280;61637;47.760;-122.022;2023-08-12T03:20:01;101930.339;;;20.2;64.0
73422;BME280;61637;47.760;-122.022;2023-08-12T03:22:00;101930.339;;;20.1;63.0
73422;BME280;61637;47.760;-122.022;2023-08-12T03:24:00;101930.339;;;20.1;64.0
73422;BME280;61637;47.760;-122.022;2023-08-12T03:26:00;101930.339;;;20.0;64.0
73422;BME280;61637;47.760;-122.022;2023-08-12T03:28:00;101930.339;;;19.9;65.0
73422;BME280;61637;47.760;-122.022;2023-08-12T03:30:00;101930.339;;;19.8;64.0
73422;BME280;61637;47.760;-122.022;2023-08-12T03:32:01;101930.339;;;19.7;64.0
73422;BME280;61637;47.760;-122.022;2023-08-12T03:34:00;101930.339;;;19.7;65.0
73422;BME280;61637;47.760;-122.022;2023-08-12T03:36:00;101930.339;;;19.6;65.0
73422;BME280;61637;47.760;-122.022;2023-08-12T03:38:00;101930.339;;;19.5;65.0
73422;BME280;61637;47.760;-122.022;2023-08-12T03:40:01;101930.339;;;19.4;65.0
73422;BME280;61637;47.760;-122.022;2023-08-12T03:42:00;101930.339;;;19.4;66.0
73422;BME280;61637;47.760;-122.022;2023-08-12T03:44:01;101930.339;;;19.3;67.0
73422;BME280;61637;47.760;-122.022;2023-08-12T03:46:00;101930.339;;;19.3;66.0
73422;BME280;61637;47.760;-122.022;2023-08-12T03:48:00;101930.339;;;19.2;66.0
73422;BME280;61637;47.760;-122.022;2023-08-12T03:50:00;101930.339;;;19.2;66.0
73422;BME280;61637;47.760;-122.022;2023-08-12T03:52:00;101930.339;;;19.1;66.0
73422;BME280;61637;47.760;-122.022;2023-08-12T03:54:00;101930.339;;;19.1;66.0
73422;BME280;61637;47.760;-122.022;2023-08-12T03:56:01;101930.339;;;18.9;67.0
73422;BME280;61637;47.760;-122.022;2023-08-12T03:58:01;101930.339;;;18.9;67.0
73422;BME280;61637;47.760;-122.022;2023-08-12T04:00:00;101930.339;;;18.8;67.0
73422;BME280;61637;47.760;-122.022;2023-08-12T04:02:00;101930.339;;;18.8;67.0
73422;BME280;61637;47.760;-122.022;2023-08-12T04:04:00;101930.339;;;18.8;67.0
73422;BME280;61637;47.760;-122.022;2023-08-12T04:06:00;101930.339;;;18.8;67.0
73422;BME280;61637;47.760;-122.022;2023-08-12T04:08:01;101930.339;;;18.7;67.0
73422;BME280;61637;47.760;-122.022;2023-08-12T04:10:01;101930.339;;;18.7;67.0
73422;BME280;61637;47.760;-122.022;2023-08-12T04:12:01;101930.339;;;18.7;67.0
73422;BME280;61637;47.760;-122.022;2023-08-12T04:14:00;101930.339;;;18.6;67.0
73422;BME280;61637;47.760;-122.022;2023-08-12T04:16:00;101930.339;;;18.6;67.0
73422;BME280;61637;47.760;-122.022;2023-08-12T04:18:00;101930.339;;;18.5;67.0
73422;BME280;61637;47.760;-122.022;2023-08-12T04:20:01;101930.339;;;18.4;67.0
73422;BME280;61637;47.760;-122.022;2023-08-12T04:22:00;101930.339;;;18.4;68.0
73422;BME280;61637;47.760;-122.022;2023-08-12T04:24:00;101930.339;;;18.3;68.0
73422;BME280;61637;47.760;-122.022;2023-08-12T04:26:00;101930.339;;;18.3;68.0
73422;BME280;61637;47.760;-122.022;2023-08-12T04:28:00;101930.339;;;18.2;67.0
73422;BME280;61637;47.760;-122.022;2023-08-12T04:30:00;101930.339;;;18.1;67.0
73422;BME280;61637;47.760;-122.022;2023-08-12T04:32:01;101930.339;;;18.1;67.0
73422;BME280;61637;47.760;-122.022;2023-08-12T04:34:01;101930.339;;;18.1;67.0
73422;BME280;61637;47.760;-122.022;2023-08-12T04:36:00;101930.339;;;18.0;67.0
73422;BME280;61637;47.760;-122.022;2023-08-12T04:38:00;101930.339;;;17.9;67.0
73422;BME280;61637;47.760;-122.022;2023-08-12T04:40:00;101930.339;;;17.9;67.0
73422;BME280;61637;47.760;-122.022;2023-08-12T04:42:00;101930.339;;;17.9;68.0
73422;BME280;61637;47.760;-122.022;2023-08-12T04:44:01;101930.339;;;17.8;67.0
73422;BME280;61637;47.760;-122.022;2023-08-12T04:46:00;101930.339;;;17.8;67.0
73422;BME280;61637;47.760;-122.022;2023-08-12T04:48:00;101930.339;;;17.8;68.0
73422;BME280;61637;47.760;-122.022;2023-08-12T04:50:00;101930.339;;;17.8;68.0
73422;BME280;61637;47.760;-122.022;2023-08-12T04:52:00;101930.339;;;17.8;68.0
73422;BME280;61637;47.760;-122.022;2023-08-12T04:54:00;101930.339;;;17.7;68.0
73422;BME280;61637;47.760;-122.022;2023-08-12T04:56:01;101930.339;;;17.7;69.0
73422;BME280;61637;47.760;-122.022;2023-08-12T04:58:01;101930.339;;;17.7;69.0
73422;BME280;61637;47.760;-122.022;2023-08-12T05:00:00;101930.339;;;17.6;69.0
73422;BME280;61637;47.760;-122.022;2023-08-12T05:02:00;101930.339;;;17.6;69.0
73422;BME280;61637;47.760;-122.022;2023-08-12T05:04:00;101930.339;;;17.5;69.0
73422;BME280;61637;47.760;-122.022;2023-08-12T05:06:00;101930.339;;;17.5;69.0
73422;BME280;61637;47.760;-122.022;2023-08-12T05:08:01;101930.339;;;17.4;70.0
73422;BME280;61637;47.760;-122.022;2023-08-12T05:10:01;101930.339;;;17.4;70.0
73422;BME280;61637;47.760;-122.022;2023-08-12T05:12:00;101930.339;;;17.3;70.0
73422;BME280;61637;47.760;-122.022;2023-08-12T05:14:00;101930.339;;;17.3;70.0
73422;BME280;61637;47.760;-122.022;2023-08-12T05:16:00;101930.339;;;17.3;70.0
73422;BME280;61637;47.760;-122.022;2023-08-12T05:18:00;101930.339;;;17.2;71.0
73422;BME280;61637;47.760;-122.022;2023-08-12T05:20:01;101930.339;;;17.2;71.0
73422;BME280;61637;47.760;-122.022;2023-08-12T05:22:00;101930.339;;;17.2;71.0
73422;BME280;61637;47.760;-122.022;2023-08-12T05:24:00;101930.339;;;17.1;71.0
73422;BME280;61637;47.760;-122.022;2023-08-12T05:26:00;101930.339;;;17.1;71.0
73422;BME280;61637;47.760;-122.022;2023-08-12T05:28:00;101930.339;;;17.0;71.0
73422;BME280;61637;47.760;-122.022;2023-08-12T05:30:00;101930.339;;;17.0;71.0
73422;BME280;61637;47.760;-122.022;2023-08-12T05:32:01;101930.339;;;16.9;71.0
73422;BME280;61637;47.760;-122.022;2023-08-12T05:34:00;101930.339;;;16.9;72.0
73422;BME280;61637;47.760;-122.022;2023-08-12T05:36:00;101930.339;;;16.8;72.0
73422;BME280;61637;47.760;-122.022;2023-08-12T05:38:00;101930.339;;;16.8;73.0
73422;BME280;61637;47.760;-122.022;2023-08-12T05:40:01;101930.339;;;16.8;73.0
73422;BME280;61637;47.760;-122.022;2023-08-12T05:42:00;101930.339;;;16.7;73.0
73422;BME280;61637;47.760;-122.022;2023-08-12T05:44:01;101930.339;;;16.7;73.0
73422;BME280;61637;47.760;-122.022;2023-08-12T05:46:00;101930.339;;;16.7;73.0
73422;BME280;61637;47.760;-122.022;2023-08-12T05:48:00;101930.339;;;16.6;74.0
73422;BME280;61637;47.760;-122.022;2023-08-12T05:50:00;101930.339;;;16.6;74.0
73422;BME280;61637;47.760;-122.022;2023-08-12T05:52:00;101930.339;;;16.5;74.0
73422;BME280;61637;47.760;-122.022;2023-08-12T05:54:00;101930.339;;;16.4;74.0
73422;BME280;61637;47.760;-122.022;2023-08-12T05:56:01;101930.339;;;16.4;74.0
73422;BME280;61637;47.760;-122.022;2023-08-12T05:58:00;101930.339;;;16.4;75.0
73422;BME280;61637;47.760;-122.022;2023-08-12T06:00:00;101930.339;;;16.4;75.0
73422;BME280;61637;47.760;-122.022;2023-08-12T06:02:00;101930.339;;;16.3;75.0
73422;BME280;61637;47.760;-122.022;2023-08-12T06:04:00;101930.339;;;16.3;75.0
73422;BME280;61637;47.760;-122.022;2023-08-12T06:06:00;101930.339;;;16.3;75.0
73422;BME280;61637;47.760;-122.022;2023-08-12T06:08:01;101930.339;;;16.3;75.0
73422;BME280;61637;47.760;-122.022;2023-08-12T06:10:01;101930.339;;;16.2;76.0
73422;BME280;61637;47.760;-122.022;2023-08-12T06:12:00;101930.339;;;16.2;76.0
73422;BME280;61637;47.760;-122.022;2023-08-12T06:14:00;101930.339;;;16.2;76.0
73422;BME280;61637;47.760;-122.022;2023-08-12T06:16:00;101930.339;;;16.1;76.0
73422;BME280;61637;47.760;-122.022;2023-08-12T06:18:00;101930.339;;;16.1;76.0
73422;BME280;61637;47.760;-122.022;2023-08-12T06:20:01;101930.339;;;16.1;76.0
73422;BME280;61637;47.760;-122.022;2023-08-12T06:22:00;101930.339;;;16.0;77.0
73422;BME280;61637;47.760;-122.022;2023-08-12T06:24:00;101930.339;;;16.0;77.0
73422;BME280;61637;47.760;-122.022;2023-08-12T06:26:00;101930.339;;;16.0;77.0
73422;BME280;61637;47.760;-122.022;2023-08-12T06:28:00;101930.339;;;15.9;77.0
73422;BME280;61637;47.760;-122.022;2023-08-12T06:30:00;101930.339;;;15.9;77.0
73422;BME280;61637;47.760;-122.022;2023-08-12T06:32:01;101930.339;;;15.9;77.0
73422;BME280;61637;47.760;-122.022;2023-08-12T06:34:00;101930.339;;;15.8;77.0
73422;BME280;61637;47.760;-122.022;2023-08-12T06:36:00;101930.339;;;15.8;77.0
73422;BME280;61637;47.760;-122.022;2023-08-12T06:38:00;101930.339;;;15.8;77.0
73422;BME280;61637;47.760;-122.022;2023-08-12T06:40:00;101930.339;;;15.7;77.0
73422;BME280;61637;47.760;-122.022;2023-08-12T06:42:00;101930.339;;;15.8;77.0
73422;BME280;61637;47.760;-122.022;2023-08-12T06:44:01;101930.339;;;15.7;77.0
73422;BME280;61637;47.760;-122.022;2023-08-12T06:46:00;101930.339;;;15.7;77.0
73422;BME280;61637;47.760;-122.022;2023-08-12T06:48:00;101930.339;;;15.7;77.0
73422;BME280;61637;47.760;-122.022;2023-08-12T06:50:00;101930.339;;;15.7;78.0
73422;BME280;61637;47.760;-122.022;2023-08-12T06:52:00;101930.339;;;15.6;78.0
73422;BME280;61637;47.760;-122.022;2023-08-12T06:54:00;101930.339;;;15.6;78.0
73422;BME280;61637;47.760;-122.022;2023-08-12T06:56:01;101930.339;;;15.6;78.0
73422;BME280;61637;47.760;-122.022;2023-08-12T06:58:00;101930.339;;;15.5;78.0
73422;BME280;61637;47.760;-122.022;2023-08-12T07:00:00;101930.339;;;15.5;78.0
73422;BME280;61637;47.760;-122.022;2023-08-12T07:02:00;101930.339;;;15.4;78.0
73422;BME280;61637;47.760;-122.022;2023-08-12T07:04:00;101930.339;;;15.4;78.0
73422;BME280;61637;47.760;-122.022;2023-08-12T07:06:00;101930.339;;;15.4;78.0
73422;BME280;61637;47.760;-122.022;2023-08-12T07:08:01;101930.339;;;15.3;79.0
73422;BME280;61637;47.760;-122.022;2023-08-12T07:10:00;101930.339;;;15.3;79.0
73422;BME280;61637;47.760;-122.022;2023-08-12T07:12:00;101930.339;;;15.3;79.0
73422;BME280;61637;47.760;-122.022;2023-08-12T07:14:00;101930.339;;;15.3;79.0
73422;BME280;61637;47.760;-122.022;2023-08-12T07:16:00;101930.339;;;15.3;79.0
73422;BME280;61637;47.760;-122.022;2023-08-12T07:18:00;101930.339;;;15.2;79.0
73422;BME280;61637;47.760;-122.022;2023-08-12T07:20:01;101930.339;;;15.2;79.0
73422;BME280;61637;47.760;-122.022;2023-08-12T07:22:00;101930.339;;;15.2;79.0
73422;BME280;61637;47.760;-122.022;2023-08-12T07:24:00;101930.339;;;15.2;80.0
73422;BME280;61637;47.760;-122.022;2023-08-12T07:26:00;101930.339;;;15.2;80.0
73422;BME280;61637;47.760;-122.022;2023-08-12T07:28:00;101930.339;;;15.1;80.0
73422;BME280;61637;47.760;-122.022;2023-08-12T07:30:00;101930.339;;;15.1;80.0
73422;BME280;61637;47.760;-122.022;2023-08-12T07:32:01;101930.339;;;15.1;80.0
73422;BME280;61637;47.760;-122.022;2023-08-12T07:34:00;101930.339;;;15.1;80.0
73422;BME280;61637;47.760;-122.022;2023-08-12T07:36:01;101930.339;;;15.1;80.0
73422;BME280;61637;47.760;-122.022;2023-08-12T07:38:00;101930.339;;;15.1;80.0
73422;BME280;61637;47.760;-122.022;2023-08-12T07:40:00;101930.339;;;15.1;80.0
73422;BME280;61637;47.760;-122.022;2023-08-12T07:42:00;101930.339;;;15.1;80.0
73422;BME280;61637;47.760;-122.022;2023-08-12T07:44:01;101930.339;;;15.1;80.0
73422;BME280;61637;47.760;-122.022;2023-08-12T07:46:00;101930.339;;;15.1;80.0
73422;BME280;61637;47.760;-122.022;2023-08-12T07:48:00;101930.339;;;15.1;80.0
73422;BME280;61637;47.760;-122.022;2023-08-12T07:50:00;101930.339;;;15.1;80.0
73422;BME280;61637;47.760;-122.022;2023-08-12T07:52:00;101930.339;;;15.1;80.0
73422;BME280;61637;47.760;-122.022;2023-08-12T07:54:00;101930.339;;;15.1;81.0
73422;BME280;61637;47.760;-122.022;2023-08-12T07:56:01;101930.339;;;15.1;81.0
73422;BME280;61637;47.760;-122.022;2023-08-12T07:58:00;102268.97799999999;;;15.0;81.0
73422;BME280;61637;47.760;-122.022;2023-08-12T08:00:00;102268.97799999999;;;15.1;81.0
73422;BME280;61637;47.760;-122.022;2023-08-12T08:02:00;102268.97799999999;;;15.1;81.0
73422;BME280;61637;47.760;-122.022;2023-08-12T08:04:00;102268.97799999999;;;15.0;81.0
73422;BME280;61637;47.760;-122.022;2023-08-12T08:06:00;102268.97799999999;;;15.0;81.0
73422;BME280;61637;47.760;-122.022;2023-08-12T08:08:01;102268.97799999999;;;15.0;81.0
73422;BME280;61637;47.760;-122.022;2023-08-12T08:10:00;102268.97799999999;;;15.0;81.0
73422;BME280;61637;47.760;-122.022;2023-08-12T08:12:00;102268.97799999999;;;14.9;81.0
73422;BME280;61637;47.760;-122.022;2023-08-12T08:14:00;102268.97799999999;;;14.9;81.0
73422;BME280;61637;47.760;-122.022;2023-08-12T08:16:00;102268.97799999999;;;14.9;81.0
73422;BME280;61637;47.760;-122.022;2023-08-12T08:18:00;102268.97799999999;;;14.9;81.0
73422;BME280;61637;47.760;-122.022;2023-08-12T08:20:01;102268.97799999999;;;14.9;81.0
73422;BME280;61637;47.760;-122.022;2023-08-12T08:22:00;102268.97799999999;;;14.9;81.0
73422;BME280;61637;47.760;-122.022;2023-08-12T08:24:00;102268.97799999999;;;14.9;82.0
73422;BME280;61637;47.760;-122.022;2023-08-12T08:26:00;102268.97799999999;;;14.8;81.0
73422;BME280;61637;47.760;-122.022;2023-08-12T08:28:00;102268.97799999999;;;14.8;82.0
73422;BME280;61637;47.760;-122.022;2023-08-12T08:30:00;102268.97799999999;;;14.8;82.0
73422;BME280;61637;47.760;-122.022;2023-08-12T08:32:01;102268.97799999999;;;14.8;82.0
73422;BME280;61637;47.760;-122.022;2023-08-12T08:34:00;102268.97799999999;;;14.8;82.0
73422;BME280;61637;47.760;-122.022;2023-08-12T08:36:00;102268.97799999999;;;14.8;82.0
73422;BME280;61637;47.760;-122.022;2023-08-12T08:38:00;102268.97799999999;;;14.8;82.0
73422;BME280;61637;47.760;-122.022;2023-08-12T08:40:00;102268.97799999999;;;14.8;82.0
73422;BME280;61637;47.760;-122.022;2023-08-12T08:42:00;102268.97799999999;;;14.8;82.0
73422;BME280;61637;47.760;-122.022;2023-08-12T08:44:01;102268.97799999999;;;14.8;82.0
73422;BME280;61637;47.760;-122.022;2023-08-12T08:46:01;102268.97799999999;;;14.8;82.0
73422;BME280;61637;47.760;-122.022;2023-08-12T08:48:01;102268.97799999999;;;14.8;82.0
73422;BME280;61637;47.760;-122.022;2023-08-12T08:50:00;102268.97799999999;;;14.8;82.0
73422;BME280;61637;47.760;-122.022;2023-08-12T08:52:00;102268.97799999999;;;14.8;82.0
73422;BME280;61637;47.760;-122.022;2023-08-12T08:54:02;102268.97799999999;;;14.8;82.0
73422;BME280;61637;47.760;-122.022;2023-08-12T08:56:01;102268.97799999999;;;14.8;82.0
73422;BME280;61637;47.760;-122.022;2023-08-12T08:58:00;102268.97799999999;;;14.8;83.0
73422;BME280;61637;47.760;-122.022;2023-08-12T09:00:00;102268.97799999999;;;14.8;83.0
73422;BME280;61637;47.760;-122.022;2023-08-12T09:02:00;102268.97799999999;;;14.9;83.0
73422;BME280;61637;47.760;-122.022;2023-08-12T09:04:00;102268.97799999999;;;14.9;83.0
73422;BME280;61637;47.760;-122.022;2023-08-12T09:06:00;102268.97799999999;;;14.9;83.0
73422;BME280;61637;47.760;-122.022;2023-08-12T09:08:01;102268.97799999999;;;14.9;83.0
73422;BME280;61637;47.760;-122.022;2023-08-12T09:10:00;102268.97799999999;;;14.9;83.0
73422;BME280;61637;47.760;-122.022;2023-08-12T09:12:01;102268.97799999999;;;14.9;83.0
73422;BME280;61637;47.760;-122.022;2023-08-12T09:14:00;102268.97799999999;;;14.9;83.0
73422;BME280;61637;47.760;-122.022;2023-08-12T09:16:00;102268.97799999999;;;14.9;83.0
73422;BME280;61637;47.760;-122.022;2023-08-12T09:18:00;102268.97799999999;;;14.9;83.0
73422;BME280;61637;47.760;-122.022;2023-08-12T09:20:01;102268.97799999999;;;14.9;83.0
73422;BME280;61637;47.760;-122.022;2023-08-12T09:22:01;102268.97799999999;;;14.9;83.0
73422;BME280;61637;47.760;-122.022;2023-08-12T09:24:02;102268.97799999999;;;14.9;83.0
73422;BME280;61637;47.760;-122.022;2023-08-12T09:26:01;102268.97799999999;;;14.9;83.0
73422;BME280;61637;47.760;-122.022;2023-08-12T09:28:00;102268.97799999999;;;14.8;83.0
73422;BME280;61637;47.760;-122.022;2023-08-12T09:30:02;102268.97799999999;;;14.8;83.0
73422;BME280;61637;47.760;-122.022;2023-08-12T09:34:03;102268.97799999999;;;14.8;83.0
73422;BME280;61637;47.760;-122.022;2023-08-12T09:36:00;102268.97799999999;;;14.8;83.0
73422;BME280;61637;47.760;-122.022;2023-08-12T09:38:02;102268.97799999999;;;14.8;83.0
73422;BME280;61637;47.760;-122.022;2023-08-12T09:40:01;102268.97799999999;;;14.8;83.0
73422;BME280;61637;47.760;-122.022;2023-08-12T09:42:00;102268.97799999999;;;14.8;83.0
73422;BME280;61637;47.760;-122.022;2023-08-12T09:44:01;102268.97799999999;;;14.8;83.0
73422;BME280;61637;47.760;-122.022;2023-08-12T09:46:00;102268.97799999999;;;14.8;83.0
73422;BME280;61637;47.760;-122.022;2023-08-12T09:48:00;102268.97799999999;;;14.8;83.0
73422;BME280;61637;47.760;-122.022;2023-08-12T09:50:01;102268.97799999999;;;14.8;83.0
73422;BME280;61637;47.760;-122.022;2023-08-12T09:52:00;102268.97799999999;;;14.8;83.0
73422;BME280;61637;47.760;-122.022;2023-08-12T09:54:00;102268.97799999999;;;14.8;83.0
73422;BME280;61637;47.760;-122.022;2023-08-12T09:56:04;102268.97799999999;;;14.8;83.0
73422;BME280;61637;47.760;-122.022;2023-08-12T09:58:00;102268.97799999999;;;14.8;83.0
73422;BME280;61637;47.760;-122.022;2023-08-12T10:00:00;102268.97799999999;;;14.8;83.0